Time;durP1;ratioP1;P1;durP2;ratioP2;P2;SDS_P1;SDS_P2;PMS_P1;PMS_P2;Temp;Humidity;BMP_temperature;BMP_pressure;BME280_temperature;BME280_humidity;BME280_pressure;Samples;Min_cycle;Max_cycle;Signal;HPM_P1;HPM_P2
2022/12/19 00:01:48;;;;;;;57.23;33.20;;;;;;;-0.58;100.00;101700.59;5023255;28;20600;-66
2022/12/19 00:04:14;;;;;;;62.47;34.93;;;;;;;-0.50;100.00;101679.25;5018403;28;20034;-67
2022/12/19 00:06:40;;;;;;;58.73;33.83;;;;;;;-0.50;100.00;101679.25;5023449;28;20406;-66
2022/12/19 00:09:06;;;;;;;63.67;36.43;;;;;;;-0.44;100.00;101672.91;5024465;28;20025;-66
2022/12/19 00:11:32;;;;;;;61.97;34.63;;;;;;;-0.44;100.00;101678.00;5033661;28;20106;-67
2022/12/19 00:13:58;;;;;;;59.77;35.17;;;;;;;-0.44;100.00;101671.28;5028627;28;20033;-67
2022/12/19 00:16:26;;;;;;;63.03;34.90;;;;;;;-0.45;100.00;101658.41;5009439;28;20470;-67
2022/12/19 00:18:53;;;;;;;60.87;34.47;;;;;;;-0.46;100.00;101651.50;5021457;28;20507;-67
2022/12/19 00:21:21;;;;;;;66.37;35.17;;;;;;;-0.45;100.00;101666.03;5027841;28;20116;-67
2022/12/19 00:23:47;;;;;;;65.40;36.80;;;;;;;-0.45;100.00;101660.94;5029363;28;20275;-67
2022/12/19 00:26:46;;;;;;;65.83;37.67;;;;;;;-0.46;100.00;101659.13;5038193;28;20168;-67
2022/12/19 00:29:11;;;;;;;68.20;37.50;;;;;;;-0.47;100.00;101654.81;5009300;28;20123;-68
2022/12/19 00:31:36;;;;;;;65.37;36.90;;;;;;;-0.49;100.00;101640.28;5008758;28;20029;-68
2022/12/19 00:34:02;;;;;;;62.43;34.83;;;;;;;-0.50;100.00;101635.94;5011907;28;20037;-68
2022/12/19 00:36:32;;;;;;;71.03;39.47;;;;;;;-0.47;100.00;101637.91;5019016;28;20176;-68
2022/12/19 00:38:59;;;;;;;72.83;39.53;;;;;;;-0.44;100.00;101637.25;5013144;28;20053;-69
2022/12/19 00:41:27;;;;;;;70.73;37.63;;;;;;;-0.43;100.00;101639.06;5028731;28;20029;-68
2022/12/19 00:43:54;;;;;;;70.87;37.93;;;;;;;-0.42;100.00;101633.19;5028428;28;20079;-68
2022/12/19 00:46:20;;;;;;;68.50;39.60;;;;;;;-0.41;100.00;101629.88;5027128;28;20025;-69
2022/12/19 00:48:45;;;;;;;70.53;37.23;;;;;;;-0.36;100.00;101623.56;5010425;28;20437;-68
2022/12/19 00:51:17;;;;;;;73.03;37.30;;;;;;;-0.32;100.00;101617.97;5008892;28;20042;-69
2022/12/19 00:53:44;;;;;;;70.47;39.10;;;;;;;-0.29;100.00;101619.91;5021915;28;20075;-69
2022/12/19 00:56:13;;;;;;;74.03;39.07;;;;;;;-0.26;100.00;101623.63;5021587;28;20057;-69
2022/12/19 00:58:39;;;;;;;67.10;37.47;;;;;;;-0.26;100.00;101623.63;5008006;28;20541;-69
2022/12/19 01:01:06;;;;;;;67.30;35.60;;;;;;;-0.22;100.00;101604.41;5008588;28;20030;-69
2022/12/19 01:03:32;;;;;;;66.43;37.43;;;;;;;-0.17;100.00;101586.97;5008319;28;20273;-69
2022/12/19 01:05:57;;;;;;;66.43;36.43;;;;;;;-0.13;100.00;101600.09;5008661;28;20132;-69
2022/12/19 01:08:23;;;;;;;67.83;36.67;;;;;;;-0.08;100.00;101597.97;5030625;28;20033;-69
2022/12/19 01:10:49;;;;;;;70.30;36.97;;;;;;;-0.06;100.00;101596.47;5029787;28;20033;-69
2022/12/19 01:13:17;;;;;;;66.00;38.70;;;;;;;-0.04;100.00;101600.03;5027224;28;20030;-69
2022/12/19 01:15:42;;;;;;;65.40;36.27;;;;;;;-0.01;100.00;101604.50;5014182;28;20038;-69
2022/12/19 01:18:09;;;;;;;66.17;36.97;;;;;;;-0.01;100.00;101590.09;5026671;28;20022;-69
2022/12/19 01:20:38;;;;;;;68.17;37.13;;;;;;;-0.01;100.00;101600.31;5027325;28;20231;-69
2022/12/19 01:23:04;;;;;;;68.60;36.77;;;;;;;-0.01;100.00;101590.09;5014818;28;20021;-69
2022/12/19 01:25:29;;;;;;;66.80;37.20;;;;;;;-0.01;100.00;101581.56;5035644;28;20032;-68
2022/12/19 01:27:56;;;;;;;60.73;35.93;;;;;;;0.01;100.00;101579.13;5037072;28;20458;-69
2022/12/19 01:30:21;;;;;;;62.80;36.50;;;;;;;0.01;100.00;101581.69;5014192;28;20034;-69
2022/12/19 01:32:46;;;;;;;69.73;37.57;;;;;;;-0.01;100.00;101564.63;5026819;28;20025;-69
2022/12/19 01:35:11;;;;;;;64.80;37.90;;;;;;;-0.01;100.00;101563.72;5014722;28;20493;-69
2022/12/19 01:37:37;;;;;;;72.30;38.67;;;;;;;0.00;100.00;101575.72;5007657;28;20026;-69
2022/12/19 01:40:02;;;;;;;63.30;35.90;;;;;;;-0.01;100.00;101563.72;5019753;28;20037;-69
2022/12/19 01:42:35;;;;;;;65.03;35.47;;;;;;;-0.02;100.00;101580.66;5014065;28;20025;-69
2022/12/19 01:45:06;;;;;;;64.17;34.17;;;;;;;-0.02;100.00;101579.78;5026413;28;20088;-69
2022/12/19 01:47:34;;;;;;;67.32;35.88;;;;;;;-0.02;100.00;101583.19;5026772;28;20032;-69
2022/12/19 01:50:02;;;;;;;64.67;36.90;;;;;;;-0.01;100.00;101573.91;5026481;28;20049;-69
2022/12/19 01:52:28;;;;;;;68.60;35.83;;;;;;;-0.02;100.00;101573.00;5026417;28;20057;-69
2022/12/19 01:54:54;;;;;;;63.53;36.83;;;;;;;-0.01;100.00;101581.56;5025949;28;20036;-69
2022/12/19 01:57:20;;;;;;;62.27;36.00;;;;;;;-0.01;100.00;101562.06;5030451;28;20025;-69
2022/12/19 01:59:54;;;;;;;66.43;38.60;;;;;;;-0.01;100.00;101564.63;5030230;28;20033;-69
2022/12/19 02:02:36;;;;;;;61.40;35.27;;;;;;;0.01;100.00;101562.19;5033257;28;20487;-69
2022/12/19 02:05:04;;;;;;;68.53;35.67;;;;;;;0.02;100.00;101563.97;5032098;28;20156;-69
2022/12/19 02:07:31;;;;;;;64.37;34.70;;;;;;;0.05;100.00;101558.25;5033440;28;20112;-69
2022/12/19 02:09:57;;;;;;;66.70;35.73;;;;;;;0.04;100.00;101556.44;5032226;28;20036;-69
2022/12/19 02:12:27;;;;;;;65.87;36.03;;;;;;;0.06;100.00;101550.75;5033148;28;20029;-69
2022/12/19 02:14:55;;;;;;;67.20;36.88;;;;;;;0.10;100.00;101549.34;5014308;28;20029;-69
2022/12/19 02:18:02;;;;;;;65.57;37.70;;;;;;;0.11;100.00;101536.72;5014429;28;20029;-68
2022/12/19 02:20:36;;;;;;;68.43;36.43;;;;;;;0.15;100.00;101535.34;5005991;28;20108;-69
2022/12/19 02:23:40;;;;;;;66.67;37.87;;;;;;;0.18;100.00;101527.94;5013867;28;20026;-69
2022/12/19 02:26:37;;;;;;;66.10;35.20;;;;;;;0.19;100.00;101522.09;5043976;28;20481;-69
2022/12/19 02:29:24;;;;;;;66.20;36.67;;;;;;;0.21;100.00;101524.78;5037735;28;20029;-69
2022/12/19 02:32:09;;;;;;;64.33;35.83;;;;;;;0.23;100.00;101508.81;5014654;28;20089;-69
2022/12/19 02:34:49;;;;;;;63.60;35.20;;;;;;;0.28;100.00;101510.88;5013572;28;20482;-69
2022/12/19 02:37:44;;;;;;;71.03;36.07;;;;;;;0.34;100.00;101511.41;5013290;28;20438;-69
2022/12/19 02:40:38;;;;;;;63.37;36.10;;;;;;;0.40;100.00;101511.91;5013840;28;20029;-69
2022/12/19 02:43:07;;;;;;;68.73;36.33;;;;;;;0.45;100.00;101508.09;5013214;28;20038;-69
2022/12/19 02:45:36;;;;;;;64.57;35.13;;;;;;;0.49;100.00;101503.28;5026265;28;20366;-69
2022/12/19 02:48:04;;;;;;;66.37;35.43;;;;;;;0.52;100.00;101495.88;5013531;28;20037;-69
2022/12/19 02:50:41;;;;;;;69.37;36.30;;;;;;;0.56;100.00;101490.25;5013883;28;20096;-69
2022/12/19 02:53:09;;;;;;;68.60;34.50;;;;;;;0.61;100.00;101482.97;5013069;28;20033;-69
2022/12/19 02:56:04;;;;;;;71.97;35.33;;;;;;;0.65;100.00;101483.34;5013891;28;20025;-69
2022/12/19 02:58:44;;;;;;;73.10;34.50;;;;;;;0.68;100.00;101486.19;5019894;28;20268;-69
2022/12/19 03:01:24;;;;;;;67.03;35.00;;;;;;;0.74;100.00;101470.47;5013851;28;20038;-69
2022/12/19 03:04:16;;;;;;;62.97;34.60;;;;;;;0.82;100.00;101468.53;5033060;28;20025;-69
2022/12/19 03:06:51;;;;;;;72.20;35.07;;;;;;;0.85;100.00;101470.47;5013596;28;20022;-68
2022/12/19 03:09:35;;;;;;;66.20;34.23;;;;;;;0.86;100.00;101468.03;5010485;28;20026;-68
2022/12/19 03:12:14;;;;;;;68.77;33.47;;;;;;;0.89;100.00;101473.38;5010449;28;20033;-68
2022/12/19 03:14:40;;;;;;;64.80;35.50;;;;;;;0.90;100.00;101472.59;5009978;28;20144;-68
2022/12/19 03:17:07;;;;;;;66.03;35.07;;;;;;;0.93;100.00;101477.09;5010954;28;20083;-69
2022/12/19 03:19:34;;;;;;;67.53;34.77;;;;;;;0.97;100.00;101475.69;5018928;28;20037;-68
2022/12/19 03:22:00;;;;;;;63.80;34.80;;;;;;;0.99;100.00;101472.47;5010598;28;20025;-68
2022/12/19 03:24:26;;;;;;;74.40;36.57;;;;;;;1.03;100.00;101471.94;5019825;28;20036;-68
2022/12/19 03:27:02;;;;;;;70.27;33.40;;;;;;;1.10;100.00;101475.88;5035297;28;20021;-69
2022/12/19 03:29:31;;;;;;;70.93;35.00;;;;;;;1.16;100.00;101462.72;5022873;28;20378;-69
2022/12/19 03:32:01;;;;;;;67.70;34.40;;;;;;;1.21;100.00;101465.66;5022066;28;20036;-69
2022/12/19 03:34:45;;;;;;;61.13;32.70;;;;;;;1.25;100.00;101457.47;5017782;28;20108;-69
2022/12/19 03:37:15;;;;;;;62.60;32.50;;;;;;;1.29;100.00;101450.19;5028752;28;20036;-69
2022/12/19 03:39:45;;;;;;;62.07;32.43;;;;;;;1.37;100.00;101455.88;5029247;28;20351;-69
2022/12/19 03:44:58;;;;;;;66.93;31.77;;;;;;;1.46;100.00;101457.41;5014301;28;20029;-69
2022/12/19 03:47:34;;;;;;;70.47;33.67;;;;;;;1.50;100.00;101450.09;5009755;28;20057;-68
2022/12/19 03:49:59;;;;;;;61.87;32.47;;;;;;;1.61;100.00;101450.94;5010107;28;20056;-69
2022/12/19 03:52:33;;;;;;;63.80;30.80;;;;;;;1.65;100.00;101455.53;5009536;28;20042;-68
2022/12/19 03:55:10;;;;;;;66.90;32.50;;;;;;;1.71;100.00;101449.97;5022321;28;20118;-68
2022/12/19 03:57:44;;;;;;;59.23;30.33;;;;;;;1.77;100.00;101447.91;5009632;28;20056;-68
2022/12/19 04:00:14;;;;;;;54.10;30.03;;;;;;;1.86;100.00;101440.06;5009767;28;20278;-69
2022/12/19 04:02:44;;;;;;;55.23;29.47;;;;;;;1.96;100.00;101443.34;5009282;28;20103;-68
2022/12/19 04:05:14;;;;;;;57.20;29.45;;;;;;;2.03;100.00;101448.16;5021435;28;20485;-68
2022/12/19 04:07:40;;;;;;;56.73;27.77;;;;;;;2.18;100.00;101447.53;5008355;28;20025;-69
2022/12/19 04:10:11;;;;;;;55.40;27.97;;;;;;;2.28;100.00;101444.91;5009204;28;20032;-68
2022/12/19 04:12:41;;;;;;;55.63;27.70;;;;;;;2.42;100.00;101439.91;5024812;28;20049;-68
2022/12/19 04:15:07;;;;;;;57.43;28.93;;;;;;;2.51;100.00;101440.59;5028815;28;20465;-69
2022/12/19 04:17:56;;;;;;;57.03;27.73;;;;;;;2.59;100.00;101436.06;5028090;28;20495;-69
2022/12/19 04:20:25;;;;;;;48.63;26.47;;;;;;;2.67;100.00;101434.06;5026030;28;20397;-69
2022/12/19 04:23:10;;;;;;;50.33;27.37;;;;;;;2.74;100.00;101426.06;5026844;28;20018;-69
2022/12/19 04:25:39;;;;;;;51.73;27.03;;;;;;;2.83;100.00;101425.84;5033117;28;20117;-69
2022/12/19 04:28:21;;;;;;;46.40;26.70;;;;;;;2.90;100.00;101428.06;5027404;28;20033;-69
2022/12/19 04:30:48;;;;;;;47.60;25.75;;;;;;;2.97;100.00;101426.84;5026130;28;20029;-69
2022/12/19 04:33:13;;;;;;;51.33;25.63;;;;;;;3.01;100.00;101421.16;5018274;28;20502;-69
2022/12/19 04:35:39;;;;;;;45.23;23.30;;;;;;;3.09;100.00;101411.50;5025731;28;20029;-69
2022/12/19 04:38:05;;;;;;;54.13;25.63;;;;;;;3.17;100.00;101418.03;5028216;28;20120;-69
2022/12/19 04:40:30;;;;;;;47.57;24.80;;;;;;;3.22;100.00;101415.81;5027435;28;20060;-69
2022/12/19 04:42:55;;;;;;;43.10;24.80;;;;;;;3.27;100.00;101414.47;5027391;28;20021;-68
2022/12/19 04:45:20;;;;;;;43.80;23.57;;;;;;;3.32;100.00;101408.00;5027226;28;20056;-69
2022/12/19 04:47:46;;;;;;;47.20;25.83;;;;;;;3.40;100.00;101421.34;5028183;28;20064;-69
2022/12/19 04:50:11;;;;;;;45.57;24.47;;;;;;;3.44;100.00;101415.66;5026263;28;20049;-68
2022/12/19 04:52:36;;;;;;;47.47;24.30;;;;;;;3.45;100.00;101414.84;5027157;28;20525;-69
2022/12/19 04:55:02;;;;;;;41.07;22.50;;;;;;;3.50;100.00;101410.06;5025948;28;20091;-68
2022/12/19 04:57:31;;;;;;;44.63;23.83;;;;;;;3.51;100.00;101414.41;5027263;28;20072;-67
2022/12/19 04:59:57;;;;;;;45.60;24.10;;;;;;;3.57;100.00;101419.06;5025686;28;20033;-66
2022/12/19 05:02:23;;;;;;;44.13;23.20;;;;;;;3.58;100.00;101411.50;5026854;28;20029;-67
2022/12/19 05:04:48;;;;;;;48.17;24.03;;;;;;;3.63;100.00;101414.41;5025096;28;20481;-67
2022/12/19 05:07:14;;;;;;;40.63;24.33;;;;;;;3.68;100.00;101410.47;5026760;28;20033;-66
2022/12/19 05:09:39;;;;;;;41.67;22.53;;;;;;;3.70;100.00;101413.16;5025925;28;20037;-67
2022/12/19 05:12:05;;;;;;;39.13;23.30;;;;;;;3.77;100.00;101410.22;5027258;28;20051;-67
2022/12/19 05:14:31;;;;;;;38.40;22.63;;;;;;;3.84;100.00;101409.88;5025276;28;20413;-66
2022/12/19 05:16:56;;;;;;;41.00;23.37;;;;;;;3.89;100.00;101402.47;5037375;28;20036;-66
2022/12/19 05:19:21;;;;;;;37.60;21.73;;;;;;;3.90;100.00;101406.84;5029149;28;20096;-66
2022/12/19 05:21:46;;;;;;;41.07;21.97;;;;;;;3.91;100.00;101408.59;5035393;28;20029;-67
2022/12/19 05:24:12;;;;;;;36.60;22.00;;;;;;;3.93;100.00;101408.69;5035409;28;20037;-66
2022/12/19 05:26:37;;;;;;;43.20;23.30;;;;;;;3.95;100.00;101408.03;5033666;28;20022;-66
2022/12/19 05:29:03;;;;;;;39.23;22.23;;;;;;;3.99;100.00;101406.56;5025765;28;20026;-66
2022/12/19 05:31:28;;;;;;;33.70;21.27;;;;;;;4.01;100.00;101391.28;5026543;28;20029;-66
2022/12/19 05:33:53;;;;;;;38.70;21.03;;;;;;;4.07;100.00;101407.97;5024954;28;20025;-67
2022/12/19 05:36:19;;;;;;;37.00;22.33;;;;;;;4.08;100.00;101407.16;5007673;28;20046;-66
2022/12/19 05:38:44;;;;;;;32.77;20.33;;;;;;;4.12;100.00;101404.84;5007851;28;20026;-66
2022/12/19 05:41:18;;;;;;;37.07;20.67;;;;;;;4.11;100.00;101397.91;5016883;28;20596;-66
2022/12/19 05:43:47;;;;;;;34.37;20.43;;;;;;;4.16;100.00;101397.44;5009958;28;20319;-66
2022/12/19 05:46:13;;;;;;;34.80;20.53;;;;;;;4.17;100.00;101388.94;5007830;28;20049;-66
2022/12/19 05:48:38;;;;;;;31.77;19.80;;;;;;;4.26;100.00;101398.06;5020352;28;20138;-66
2022/12/19 05:51:04;;;;;;;34.77;19.63;;;;;;;4.32;100.00;101393.31;5007716;28;20053;-66
2022/12/19 05:53:29;;;;;;;32.90;20.27;;;;;;;4.33;100.00;101395.97;5016149;28;20021;-66
2022/12/19 05:56:06;;;;;;;34.53;20.50;;;;;;;4.35;100.00;101403.81;5007184;28;20042;-67
2022/12/19 05:58:32;;;;;;;30.00;19.63;;;;;;;4.35;100.00;101392.66;5020934;28;20087;-66
2022/12/19 06:01:16;;;;;;;30.80;19.35;;;;;;;4.44;100.00;101403.53;5015747;28;20025;-66
2022/12/19 06:03:42;;;;;;;33.33;19.60;;;;;;;4.46;100.00;101396.81;5021561;28;20025;-66
2022/12/19 06:06:12;;;;;;;29.98;19.25;;;;;;;4.50;100.00;101403.03;5016150;28;20030;-66
2022/12/19 06:08:38;;;;;;;34.60;18.80;;;;;;;4.50;100.00;101403.91;5016931;28;20064;-66
2022/12/19 06:11:05;;;;;;;31.87;18.30;;;;;;;4.51;100.00;101400.59;5022706;28;20049;-66
2022/12/19 06:13:32;;;;;;;29.55;18.27;;;;;;;4.53;100.00;101398.09;5006245;28;20061;-66
2022/12/19 06:15:58;;;;;;;28.03;17.90;;;;;;;4.59;100.00;101397.63;5007806;28;20030;-66
2022/12/19 06:18:23;;;;;;;29.40;17.85;;;;;;;4.60;100.00;101399.41;5009759;28;20030;-66
2022/12/19 06:20:57;;;;;;;25.83;17.90;;;;;;;4.63;100.00;101389.31;5015299;28;20078;-66
2022/12/19 06:23:22;;;;;;;27.80;17.00;;;;;;;4.66;100.00;101389.50;5023888;28;20431;-66
2022/12/19 06:25:48;;;;;;;25.80;16.77;;;;;;;4.68;100.00;101393.06;5021792;28;20299;-66
2022/12/19 06:28:13;;;;;;;23.92;16.33;;;;;;;4.75;100.00;101394.38;5013141;28;20137;-66
2022/12/19 06:30:38;;;;;;;26.67;17.98;;;;;;;4.78;100.00;101385.19;5008911;28;20056;-66
2022/12/19 06:33:04;;;;;;;28.67;17.90;;;;;;;4.79;100.00;101384.41;5006276;28;20025;-66
2022/12/19 06:35:29;;;;;;;23.52;15.75;;;;;;;4.85;100.00;101401.88;5008081;28;20385;-66
2022/12/19 06:37:55;;;;;;;24.27;16.30;;;;;;;4.90;100.00;101399.59;5020293;28;20028;-66
2022/12/19 06:42:21;;;;;;;25.67;16.85;;;;;;;4.90;100.00;101402.16;5014156;28;20120;-66
2022/12/19 06:43:05;;;;;;;21.73;15.98;;;;;;;4.92;100.00;101408.28;5017868;28;20096;-67
2022/12/19 06:45:30;;;;;;;24.05;16.23;;;;;;;4.97;100.00;101399.19;5023902;28;20022;-67
2022/12/19 06:47:56;;;;;;;27.98;17.30;;;;;;;5.00;100.00;101412.25;5021391;28;20029;-67
2022/12/19 06:50:21;;;;;;;22.83;15.43;;;;;;;5.01;100.00;101408.91;5023308;28;20044;-67
2022/12/19 06:52:46;;;;;;;20.30;15.50;;;;;;;5.03;100.00;101402.19;5023021;28;20105;-67
2022/12/19 06:55:12;;;;;;;22.00;15.27;;;;;;;5.03;100.00;101396.16;5028858;28;20029;-66
2022/12/19 06:57:44;;;;;;;20.90;15.07;;;;;;;5.03;100.00;101417.59;5029258;28;20919;-67
2022/12/19 07:00:13;;;;;;;23.77;15.32;;;;;;;5.07;100.00;101412.66;5025169;28;20030;-67
2022/12/19 07:02:43;;;;;;;22.63;16.08;;;;;;;5.06;100.00;101401.47;5018342;28;20107;-66
2022/12/19 07:05:10;;;;;;;23.30;16.17;;;;;;;5.08;100.00;101405.03;5011819;28;20072;-66
2022/12/19 07:07:35;;;;;;;23.05;16.30;;;;;;;5.08;100.00;101409.28;5014000;28;20041;-66
2022/12/19 07:10:02;;;;;;;20.75;15.27;;;;;;;5.07;100.00;101413.53;5023346;28;20501;-66
2022/12/19 07:12:28;;;;;;;21.60;14.95;;;;;;;5.08;100.00;101414.41;5027699;28;20029;-67
2022/12/19 07:14:53;;;;;;;20.05;14.68;;;;;;;5.08;100.00;101407.59;5020193;28;20022;-67
2022/12/19 07:17:20;;;;;;;20.55;15.65;;;;;;;5.07;100.00;101407.50;5026761;28;20386;-67
2022/12/19 07:19:46;;;;;;;22.00;16.38;;;;;;;5.11;100.00;101412.94;5010978;28;20033;-66
2022/12/19 07:22:11;;;;;;;18.77;14.60;;;;;;;5.12;100.00;101413.81;5020835;28;20030;-67
2022/12/19 07:24:37;;;;;;;17.98;14.48;;;;;;;5.13;100.00;101405.31;5014491;28;20028;-67
2022/12/19 07:27:02;;;;;;;20.65;15.15;;;;;;;5.11;100.00;101414.63;5020249;28;20470;-67
2022/12/19 07:29:28;;;;;;;16.63;14.20;;;;;;;5.11;100.00;101412.06;5045488;28;20037;-66
2022/12/19 07:31:53;;;;;;;15.45;13.65;;;;;;;5.12;100.00;101417.28;5033169;28;20247;-64
2022/12/19 07:34:18;;;;;;;18.48;14.57;;;;;;;5.14;100.00;101425.09;5030692;28;20052;-65
2022/12/19 07:36:44;;;;;;;18.05;13.68;;;;;;;5.12;100.00;101414.72;5023695;28;20471;-65
2022/12/19 07:39:09;;;;;;;18.23;15.02;;;;;;;5.16;100.00;101423.50;5014810;28;20153;-65
2022/12/19 07:41:36;;;;;;;17.63;13.43;;;;;;;5.17;100.00;101409.88;5010600;28;20494;-65
2022/12/19 07:44:01;;;;;;;17.45;13.82;;;;;;;5.17;100.00;101417.56;5010657;28;20026;-65
2022/12/19 07:46:29;;;;;;;18.23;13.48;;;;;;;5.18;100.00;101432.19;5009219;28;20030;-65
2022/12/19 07:48:57;;;;;;;19.65;12.95;;;;;;;5.18;100.00;101421.03;5012361;28;20017;-65
2022/12/19 07:51:22;;;;;;;17.08;12.43;;;;;;;5.20;100.00;101420.31;5008705;28;20050;-65
2022/12/19 07:53:47;;;;;;;15.38;12.18;;;;;;;5.23;100.00;101415.41;5008186;28;20406;-65
2022/12/19 07:56:13;;;;;;;15.13;12.18;;;;;;;5.23;100.00;101424.78;5007979;28;20044;-65
2022/12/19 07:58:39;;;;;;;15.43;12.13;;;;;;;5.26;100.00;101433.56;5008026;28;20037;-65
2022/12/19 08:01:05;;;;;;;15.20;12.57;;;;;;;5.27;100.00;101432.78;5007760;28;20417;-65
2022/12/19 08:03:30;;;;;;;14.50;11.30;;;;;;;5.31;100.00;101438.13;5010810;28;20389;-65
2022/12/19 08:06:00;;;;;;;14.65;11.73;;;;;;;5.34;100.00;101433.19;5010952;28;20022;-65
2022/12/19 08:08:26;;;;;;;14.40;11.02;;;;;;;5.35;100.00;101443.56;5013260;28;20079;-65
2022/12/19 08:10:51;;;;;;;12.65;10.95;;;;;;;5.36;100.00;101439.31;5012903;28;20534;-66
2022/12/19 08:13:16;;;;;;;13.25;10.90;;;;;;;5.39;100.00;101429.22;5014108;28;20137;-66
2022/12/19 08:15:42;;;;;;;14.40;11.27;;;;;;;5.42;100.00;101442.25;5012878;28;20034;-65
2022/12/19 08:18:07;;;;;;;13.48;9.95;;;;;;;5.42;100.00;101457.66;5013639;28;20389;-65
2022/12/19 08:20:32;;;;;;;10.88;9.77;;;;;;;5.45;100.00;101457.00;5013415;28;20022;-65
2022/12/19 08:22:57;;;;;;;13.70;10.70;;;;;;;5.47;100.00;101451.13;5013485;28;20018;-65
2022/12/19 08:25:23;;;;;;;11.45;9.63;;;;;;;5.48;100.00;101442.66;5013425;28;20099;-65
2022/12/19 08:27:48;;;;;;;10.95;9.85;;;;;;;5.49;100.00;101439.28;5017923;28;20124;-65
2022/12/19 08:30:14;;;;;;;12.13;9.68;;;;;;;5.52;100.00;101429.16;5027388;28;20142;-66
2022/12/19 08:32:39;;;;;;;11.70;9.35;;;;;;;5.51;100.00;101427.41;5022126;28;20398;-66
2022/12/19 08:35:06;;;;;;;10.85;8.82;;;;;;;5.54;100.00;101426.69;5008880;28;20084;-66
2022/12/19 08:37:31;;;;;;;10.38;9.27;;;;;;;5.55;100.00;101433.63;5008294;28;20030;-66
2022/12/19 08:39:56;;;;;;;11.32;9.35;;;;;;;5.63;100.00;101436.69;5019571;28;20017;-66
2022/12/19 08:42:21;;;;;;;10.82;9.00;;;;;;;5.67;100.00;101445.47;5027857;28;20036;-66
2022/12/19 08:44:47;;;;;;;10.95;9.00;;;;;;;5.70;100.00;101456.81;5028067;28;20025;-66
2022/12/19 08:47:12;;;;;;;11.30;7.82;;;;;;;5.73;100.00;101449.31;5027612;28;20018;-66
2022/12/19 08:49:37;;;;;;;12.00;8.73;;;;;;;5.74;100.00;101451.06;5027792;28;20049;-65
2022/12/19 08:52:02;;;;;;;11.75;8.85;;;;;;;5.77;100.00;101445.25;5027180;28;20021;-66
2022/12/19 08:54:28;;;;;;;10.15;8.50;;;;;;;5.81;100.00;101451.47;5026862;28;20504;-66
2022/12/19 08:56:53;;;;;;;9.40;8.10;;;;;;;5.82;100.00;101442.94;5026541;28;20021;-66
2022/12/19 08:59:18;;;;;;;9.32;7.55;;;;;;;5.85;100.00;101445.69;5027004;28;20021;-65
2022/12/19 09:01:44;;;;;;;8.27;7.30;;;;;;;5.88;100.00;101443.34;5025670;28;20086;-65
2022/12/19 09:04:09;;;;;;;8.65;7.03;;;;;;;5.88;100.00;101448.47;5026668;28;20603;-65
2022/12/19 09:06:35;;;;;;;8.70;7.15;;;;;;;5.92;100.00;101455.56;5024780;28;20024;-66
2022/12/19 09:09:02;;;;;;;9.85;7.47;;;;;;;5.93;100.00;101457.38;5025944;28;20025;-65
2022/12/19 09:11:27;;;;;;;8.25;7.00;;;;;;;5.95;100.00;101455.78;5024601;28;20545;-65
2022/12/19 09:13:55;;;;;;;9.85;6.93;;;;;;;5.97;100.00;101449.00;5025095;28;20132;-65
2022/12/19 09:16:21;;;;;;;7.70;6.90;;;;;;;5.98;100.00;101465.34;5024389;28;20112;-65
2022/12/19 09:18:49;;;;;;;12.05;7.75;;;;;;;6.00;100.00;101456.94;5025942;28;20161;-66
2022/12/19 09:21:20;;;;;;;8.48;7.45;;;;;;;6.04;100.00;101467.41;5024639;28;20055;-65
2022/12/19 09:23:50;;;;;;;7.60;6.75;;;;;;;6.07;100.00;101462.47;5022966;28;20040;-65
2022/12/19 09:26:16;;;;;;;7.57;6.80;;;;;;;6.09;100.00;101466.03;5025107;28;20034;-65
2022/12/19 09:28:41;;;;;;;9.60;7.15;;;;;;;6.10;100.00;101462.66;5025407;28;20091;-66
2022/12/19 09:31:11;;;;;;;10.00;7.57;;;;;;;6.11;100.00;101462.78;5027421;28;20341;-66
2022/12/19 09:33:37;;;;;;;7.32;6.63;;;;;;;6.15;100.00;101463.84;5013781;28;20026;-65
2022/12/19 09:36:03;;;;;;;8.27;6.50;;;;;;;6.17;100.00;101467.38;5007215;28;20028;-65
2022/12/19 09:38:30;;;;;;;7.25;6.40;;;;;;;6.17;100.00;101469.94;5007467;28;20366;-65
2022/12/19 09:41:17;;;;;;;6.53;5.93;;;;;;;6.21;100.00;101456.47;5007931;28;20034;-66
2022/12/19 09:43:57;;;;;;;7.28;6.47;;;;;;;6.23;100.00;101460.03;5007717;28;20018;-65
2022/12/19 09:46:47;;;;;;;6.88;6.13;;;;;;;6.26;100.00;101461.03;5008022;28;20626;-65
2022/12/19 09:49:16;;;;;;;9.02;6.32;;;;;;;6.27;100.00;101457.63;5007528;28;20377;-66
2022/12/19 09:51:56;;;;;;;8.48;6.20;;;;;;;6.30;100.00;101457.81;5007793;28;20034;-66
2022/12/19 09:54:32;;;;;;;7.43;5.90;;;;;;;6.32;100.00;101467.41;5019193;28;20030;-65
2022/12/19 09:57:02;;;;;;;7.97;6.55;;;;;;;6.35;100.00;101461.56;5025319;28;20029;-65
2022/12/19 09:59:38;;;;;;;6.93;6.15;;;;;;;6.39;100.00;101463.50;5027326;28;20600;-66
2022/12/19 10:02:18;;;;;;;6.45;5.85;;;;;;;6.43;100.00;101465.47;5018614;28;20038;-66
2022/12/19 10:04:52;;;;;;;7.97;6.68;;;;;;;6.49;100.00;101475.25;5011906;28;20539;-66
2022/12/19 10:07:19;;;;;;;7.70;6.32;;;;;;;6.53;100.00;101481.47;5015888;28;20022;-65
2022/12/19 10:09:45;;;;;;;8.48;5.72;;;;;;;6.58;100.00;101492.94;5007330;28;20029;-65
2022/12/19 10:12:25;;;;;;;6.20;5.07;;;;;;;6.59;100.00;101479.25;5007303;28;20080;-66
2022/12/19 10:15:15;;;;;;;5.88;5.28;;;;;;;6.63;100.00;101470.03;5015351;28;20469;-66
2022/12/19 10:18:10;;;;;;;7.22;5.60;;;;;;;6.64;100.00;101470.09;5026023;28;20116;-65
2022/12/19 10:20:52;;;;;;;7.88;5.93;;;;;;;6.67;100.00;101467.72;5030145;28;20943;-65
2022/12/19 10:23:53;;;;;;;7.07;5.13;;;;;;;6.68;100.00;101464.34;5031033;28;20134;-66
2022/12/19 10:26:22;;;;;;;10.93;5.65;;;;;;;6.69;100.00;101468.69;5030378;28;20018;-65
2022/12/19 10:29:05;;;;;;;6.45;5.35;;;;;;;6.73;100.00;101462.03;5030504;28;20022;-65
2022/12/19 10:31:51;;;;;;;5.90;4.70;;;;;;;6.76;100.00;101463.91;5011369;28;20033;-66
2022/12/19 10:34:39;;;;;;;6.05;4.32;;;;;;;6.78;100.00;101472.59;5011682;28;20351;-65
2022/12/19 10:37:23;;;;;;;5.68;4.60;;;;;;;6.80;100.00;101481.31;5010338;28;20033;-66
2022/12/19 10:40:13;;;;;;;4.85;4.45;;;;;;;6.83;100.00;101479.81;5010772;28;20026;-65
2022/12/19 10:42:47;;;;;;;7.80;5.50;;;;;;;6.83;100.00;101481.50;5011135;28;20029;-65
2022/12/19 10:45:17;;;;;;;5.85;4.75;;;;;;;6.86;100.00;101473.94;5011538;28;20073;-66
2022/12/19 10:47:43;;;;;;;6.53;4.83;;;;;;;6.84;100.00;101484.16;5010652;28;20305;-66
2022/12/19 10:50:16;;;;;;;7.43;5.20;;;;;;;6.85;100.00;101474.75;5010583;28;20280;-65
2022/12/19 10:52:50;;;;;;;5.25;4.57;;;;;;;6.85;100.00;101474.75;5011177;28;20109;-67
2022/12/19 10:55:29;;;;;;;5.75;5.13;;;;;;;6.84;100.00;101483.25;5011059;28;20088;-66
2022/12/19 10:57:58;;;;;;;6.32;5.20;;;;;;;6.85;100.00;101477.31;5012321;28;20033;-67
2022/12/19 11:00:23;;;;;;;5.47;4.78;;;;;;;6.84;100.00;101471.25;5020089;28;20026;-66
2022/12/19 11:03:03;;;;;;;7.22;5.78;;;;;;;6.83;100.00;101468.59;5011015;28;20512;-66
2022/12/19 11:05:49;;;;;;;6.10;5.50;;;;;;;6.80;100.00;101473.59;5010563;28;20217;-66
2022/12/19 11:08:22;;;;;;;6.03;5.40;;;;;;;6.79;100.00;101467.53;5010093;28;20060;-65
2022/12/19 11:11:12;;;;;;;7.82;5.47;;;;;;;6.77;100.00;101461.41;5010061;28;20037;-65
2022/12/19 11:13:46;;;;;;;7.50;6.18;;;;;;;6.75;100.00;101459.53;5013366;28;20037;-66
2022/12/19 11:16:19;;;;;;;8.48;6.10;;;;;;;6.73;100.00;101462.91;5029361;28;20014;-65
2022/12/19 11:18:47;;;;;;;6.20;5.47;;;;;;;6.70;100.00;101465.31;5016651;28;20649;-65
2022/12/19 11:21:12;;;;;;;9.55;6.45;;;;;;;6.72;100.00;101448.28;5029731;28;20018;-65
2022/12/19 11:23:59;;;;;;;6.40;5.70;;;;;;;6.72;100.00;101437.97;5029345;28;20144;-65
2022/12/19 11:26:40;;;;;;;9.15;6.25;;;;;;;6.74;100.00;101440.63;5019660;28;20029;-65
2022/12/19 11:29:26;;;;;;;7.03;6.32;;;;;;;6.77;100.00;101442.47;5024968;28;20021;-65